sensor_id;sensor_type;location;lat;lon;timestamp;temperature;humidity
11126;DHT22;5617;54.046;10.676;2023-06-24T00:01:59;16.20;99.90
11126;DHT22;5617;54.046;10.676;2023-06-24T00:04:10;16.10;99.90
11126;DHT22;5617;54.046;10.676;2023-06-24T00:06:31;16.10;99.90
11126;DHT22;5617;54.046;10.676;2023-06-24T00:08:44;16.10;99.90
11126;DHT22;5617;54.046;10.676;2023-06-24T00:10:53;16.10;99.90
11126;DHT22;5617;54.046;10.676;2023-06-24T00:16:00;16.00;99.90
11126;DHT22;5617;54.046;10.676;2023-06-24T00:18:18;16.00;99.90
11126;DHT22;5617;54.046;10.676;2023-06-24T00:20:40;16.00;99.90
11126;DHT22;5617;54.046;10.676;2023-06-24T00:22:57;16.00;99.90
11126;DHT22;5617;54.046;10.676;2023-06-24T00:25:32;15.90;99.90
11126;DHT22;5617;54.046;10.676;2023-06-24T00:27:44;15.90;99.90
11126;DHT22;5617;54.046;10.676;2023-06-24T00:30:02;15.90;99.90
11126;DHT22;5617;54.046;10.676;2023-06-24T00:32:28;15.90;99.90
11126;DHT22;5617;54.046;10.676;2023-06-24T00:34:52;15.90;99.90
11126;DHT22;5617;54.046;10.676;2023-06-24T00:37:14;15.80;99.90
11126;DHT22;5617;54.046;10.676;2023-06-24T00:42:11;15.80;99.90
11126;DHT22;5617;54.046;10.676;2023-06-24T00:44:31;15.80;99.90
11126;DHT22;5617;54.046;10.676;2023-06-24T00:46:49;15.80;99.90
11126;DHT22;5617;54.046;10.676;2023-06-24T00:49:01;15.70;99.90
11126;DHT22;5617;54.046;10.676;2023-06-24T00:51:10;15.70;99.90
11126;DHT22;5617;54.046;10.676;2023-06-24T00:53:42;15.70;99.90
11126;DHT22;5617;54.046;10.676;2023-06-24T00:56:00;15.70;99.90
11126;DHT22;5617;54.046;10.676;2023-06-24T00:58:15;15.70;99.90
11126;DHT22;5617;54.046;10.676;2023-06-24T01:00:29;15.60;99.90
11126;DHT22;5617;54.046;10.676;2023-06-24T01:03:09;15.60;99.90
11126;DHT22;5617;54.046;10.676;2023-06-24T01:05:31;15.60;99.90
11126;DHT22;5617;54.046;10.676;2023-06-24T01:07:43;15.60;99.90
11126;DHT22;5617;54.046;10.676;2023-06-24T01:09:57;15.60;99.90
11126;DHT22;5617;54.046;10.676;2023-06-24T01:12:11;15.60;99.90
11126;DHT22;5617;54.046;10.676;2023-06-24T01:14:21;15.60;99.90
11126;DHT22;5617;54.046;10.676;2023-06-24T01:16:44;15.60;99.90
11126;DHT22;5617;54.046;10.676;2023-06-24T01:19:13;15.50;99.90
11126;DHT22;5617;54.046;10.676;2023-06-24T01:21:58;15.50;99.90
11126;DHT22;5617;54.046;10.676;2023-06-24T01:24:38;15.50;99.90
11126;DHT22;5617;54.046;10.676;2023-06-24T01:27:42;15.50;99.90
11126;DHT22;5617;54.046;10.676;2023-06-24T01:30:06;15.50;99.90
11126;DHT22;5617;54.046;10.676;2023-06-24T01:32:47;15.50;99.90
11126;DHT22;5617;54.046;10.676;2023-06-24T01:35:08;15.40;99.90
11126;DHT22;5617;54.046;10.676;2023-06-24T01:37:34;15.40;99.90
11126;DHT22;5617;54.046;10.676;2023-06-24T01:40:04;15.40;99.90
11126;DHT22;5617;54.046;10.676;2023-06-24T01:42:25;15.30;99.90
11126;DHT22;5617;54.046;10.676;2023-06-24T01:44:37;15.30;99.90
11126;DHT22;5617;54.046;10.676;2023-06-24T01:46:54;15.30;99.90
11126;DHT22;5617;54.046;10.676;2023-06-24T01:49:34;15.20;99.90
11126;DHT22;5617;54.046;10.676;2023-06-24T01:51:59;15.20;99.90
11126;DHT22;5617;54.046;10.676;2023-06-24T01:54:30;15.20;99.90
11126;DHT22;5617;54.046;10.676;2023-06-24T01:56:46;15.10;99.90
11126;DHT22;5617;54.046;10.676;2023-06-24T01:59:36;15.10;99.90
11126;DHT22;5617;54.046;10.676;2023-06-24T02:02:05;14.90;99.90
11126;DHT22;5617;54.046;10.676;2023-06-24T02:04:23;14.90;99.90
11126;DHT22;5617;54.046;10.676;2023-06-24T02:06:49;14.80;99.90
11126;DHT22;5617;54.046;10.676;2023-06-24T02:09:35;14.80;99.90
11126;DHT22;5617;54.046;10.676;2023-06-24T02:11:53;14.70;99.90
11126;DHT22;5617;54.046;10.676;2023-06-24T02:14:06;14.70;99.90
11126;DHT22;5617;54.046;10.676;2023-06-24T02:16:28;14.70;99.90
11126;DHT22;5617;54.046;10.676;2023-06-24T02:18:44;14.60;99.90
11126;DHT22;5617;54.046;10.676;2023-06-24T02:21:12;14.60;99.90
11126;DHT22;5617;54.046;10.676;2023-06-24T02:23:24;14.60;99.90
11126;DHT22;5617;54.046;10.676;2023-06-24T02:25:35;14.60;99.90
11126;DHT22;5617;54.046;10.676;2023-06-24T02:27:50;14.60;99.90
11126;DHT22;5617;54.046;10.676;2023-06-24T02:30:14;14.60;99.90
11126;DHT22;5617;54.046;10.676;2023-06-24T02:32:23;14.60;99.90
11126;DHT22;5617;54.046;10.676;2023-06-24T02:34:35;14.60;99.90
11126;DHT22;5617;54.046;10.676;2023-06-24T02:36:49;14.60;99.90
11126;DHT22;5617;54.046;10.676;2023-06-24T02:39:08;14.50;99.90
11126;DHT22;5617;54.046;10.676;2023-06-24T02:41:25;14.50;99.90
11126;DHT22;5617;54.046;10.676;2023-06-24T02:43:37;14.50;99.90
11126;DHT22;5617;54.046;10.676;2023-06-24T02:45:52;14.50;99.90
11126;DHT22;5617;54.046;10.676;2023-06-24T02:48:00;14.40;99.90
11126;DHT22;5617;54.046;10.676;2023-06-24T02:50:10;14.30;99.90
11126;DHT22;5617;54.046;10.676;2023-06-24T02:52:17;14.30;99.90
11126;DHT22;5617;54.046;10.676;2023-06-24T02:54:26;14.20;99.90
11126;DHT22;5617;54.046;10.676;2023-06-24T02:56:35;14.20;99.90
11126;DHT22;5617;54.046;10.676;2023-06-24T02:58:50;14.20;99.90
11126;DHT22;5617;54.046;10.676;2023-06-24T03:00:59;14.20;99.90
11126;DHT22;5617;54.046;10.676;2023-06-24T03:03:07;14.10;99.90
11126;DHT22;5617;54.046;10.676;2023-06-24T03:05:16;14.10;99.90
11126;DHT22;5617;54.046;10.676;2023-06-24T03:07:24;14.10;99.90
11126;DHT22;5617;54.046;10.676;2023-06-24T03:09:34;14.00;99.90
11126;DHT22;5617;54.046;10.676;2023-06-24T03:11:42;14.00;99.90
11126;DHT22;5617;54.046;10.676;2023-06-24T03:13:50;14.00;99.90
11126;DHT22;5617;54.046;10.676;2023-06-24T03:15:57;14.00;99.90
11126;DHT22;5617;54.046;10.676;2023-06-24T03:18:05;14.00;99.90
11126;DHT22;5617;54.046;10.676;2023-06-24T03:20:13;13.90;99.90
11126;DHT22;5617;54.046;10.676;2023-06-24T03:22:21;13.90;99.90
11126;DHT22;5617;54.046;10.676;2023-06-24T03:24:29;13.90;99.90
11126;DHT22;5617;54.046;10.676;2023-06-24T03:26:39;13.90;99.90
11126;DHT22;5617;54.046;10.676;2023-06-24T03:28:47;13.80;99.90
11126;DHT22;5617;54.046;10.676;2023-06-24T03:30:56;13.80;99.90
11126;DHT22;5617;54.046;10.676;2023-06-24T03:33:04;13.80;99.90
11126;DHT22;5617;54.046;10.676;2023-06-24T03:35:12;13.80;99.90
11126;DHT22;5617;54.046;10.676;2023-06-24T03:37:21;13.80;99.90
11126;DHT22;5617;54.046;10.676;2023-06-24T03:39:28;13.80;99.90
11126;DHT22;5617;54.046;10.676;2023-06-24T03:41:37;13.80;99.90
11126;DHT22;5617;54.046;10.676;2023-06-24T03:43:46;13.80;99.90
11126;DHT22;5617;54.046;10.676;2023-06-24T03:45:53;13.90;99.90
11126;DHT22;5617;54.046;10.676;2023-06-24T03:48:01;13.90;99.90
11126;DHT22;5617;54.046;10.676;2023-06-24T03:50:09;13.80;99.90
11126;DHT22;5617;54.046;10.676;2023-06-24T03:52:17;13.90;99.90
11126;DHT22;5617;54.046;10.676;2023-06-24T03:54:25;13.80;99.90
11126;DHT22;5617;54.046;10.676;2023-06-24T03:56:32;13.90;99.90
11126;DHT22;5617;54.046;10.676;2023-06-24T03:58:41;13.90;99.90
11126;DHT22;5617;54.046;10.676;2023-06-24T04:00:49;13.90;99.90
11126;DHT22;5617;54.046;10.676;2023-06-24T04:02:56;13.90;99.90
11126;DHT22;5617;54.046;10.676;2023-06-24T04:05:08;14.00;99.90
11126;DHT22;5617;54.046;10.676;2023-06-24T04:07:15;14.00;99.90
11126;DHT22;5617;54.046;10.676;2023-06-24T04:09:34;14.00;99.90
11126;DHT22;5617;54.046;10.676;2023-06-24T04:11:42;14.00;99.90
11126;DHT22;5617;54.046;10.676;2023-06-24T04:13:51;14.10;99.90
11126;DHT22;5617;54.046;10.676;2023-06-24T04:15:58;14.10;99.90
11126;DHT22;5617;54.046;10.676;2023-06-24T04:18:06;14.10;99.90
11126;DHT22;5617;54.046;10.676;2023-06-24T04:20:14;14.10;99.90
11126;DHT22;5617;54.046;10.676;2023-06-24T04:22:21;14.20;99.90
11126;DHT22;5617;54.046;10.676;2023-06-24T04:24:29;14.20;99.90
11126;DHT22;5617;54.046;10.676;2023-06-24T04:26:37;14.30;99.90
11126;DHT22;5617;54.046;10.676;2023-06-24T04:28:45;14.30;99.90
11126;DHT22;5617;54.046;10.676;2023-06-24T04:30:54;14.40;99.90
11126;DHT22;5617;54.046;10.676;2023-06-24T04:33:02;14.60;99.90
11126;DHT22;5617;54.046;10.676;2023-06-24T04:35:10;15.00;99.90
11126;DHT22;5617;54.046;10.676;2023-06-24T04:37:17;15.50;99.90
11126;DHT22;5617;54.046;10.676;2023-06-24T04:39:25;16.00;99.90
11126;DHT22;5617;54.046;10.676;2023-06-24T04:41:32;16.50;99.90
11126;DHT22;5617;54.046;10.676;2023-06-24T04:43:40;17.00;99.90
11126;DHT22;5617;54.046;10.676;2023-06-24T04:45:47;17.30;99.90
11126;DHT22;5617;54.046;10.676;2023-06-24T04:47:56;17.50;99.90
11126;DHT22;5617;54.046;10.676;2023-06-24T04:50:05;17.60;99.90
11126;DHT22;5617;54.046;10.676;2023-06-24T04:52:15;17.60;99.90
11126;DHT22;5617;54.046;10.676;2023-06-24T04:54:23;17.60;99.90
11126;DHT22;5617;54.046;10.676;2023-06-24T04:56:31;17.60;99.90
11126;DHT22;5617;54.046;10.676;2023-06-24T04:58:38;17.60;99.90
11126;DHT22;5617;54.046;10.676;2023-06-24T05:00:46;17.50;99.90
11126;DHT22;5617;54.046;10.676;2023-06-24T05:02:54;17.40;99.90
11126;DHT22;5617;54.046;10.676;2023-06-24T05:05:03;17.30;99.90
11126;DHT22;5617;54.046;10.676;2023-06-24T05:07:11;17.30;99.90
11126;DHT22;5617;54.046;10.676;2023-06-24T05:09:19;17.30;99.90
11126;DHT22;5617;54.046;10.676;2023-06-24T05:11:26;17.10;99.90
11126;DHT22;5617;54.046;10.676;2023-06-24T05:13:34;17.00;99.90
11126;DHT22;5617;54.046;10.676;2023-06-24T05:15:42;17.00;99.90
11126;DHT22;5617;54.046;10.676;2023-06-24T05:17:49;17.00;99.90
11126;DHT22;5617;54.046;10.676;2023-06-24T05:19:59;17.00;99.90
11126;DHT22;5617;54.046;10.676;2023-06-24T05:22:09;16.90;99.90
11126;DHT22;5617;54.046;10.676;2023-06-24T05:24:16;16.90;99.90
11126;DHT22;5617;54.046;10.676;2023-06-24T05:26:24;16.90;99.90
11126;DHT22;5617;54.046;10.676;2023-06-24T05:28:32;16.90;99.90
11126;DHT22;5617;54.046;10.676;2023-06-24T05:30:41;16.90;99.90
11126;DHT22;5617;54.046;10.676;2023-06-24T05:32:48;16.90;99.90
11126;DHT22;5617;54.046;10.676;2023-06-24T05:34:56;17.10;99.90
11126;DHT22;5617;54.046;10.676;2023-06-24T05:37:04;17.00;99.90
11126;DHT22;5617;54.046;10.676;2023-06-24T05:39:13;17.10;99.90
11126;DHT22;5617;54.046;10.676;2023-06-24T05:41:21;17.20;99.90
11126;DHT22;5617;54.046;10.676;2023-06-24T05:43:28;17.30;99.90
11126;DHT22;5617;54.046;10.676;2023-06-24T05:45:36;17.40;99.90
11126;DHT22;5617;54.046;10.676;2023-06-24T05:47:44;17.50;99.90
11126;DHT22;5617;54.046;10.676;2023-06-24T05:49:52;17.60;99.90
11126;DHT22;5617;54.046;10.676;2023-06-24T05:52:00;17.80;99.90
11126;DHT22;5617;54.046;10.676;2023-06-24T05:54:07;17.90;99.90
11126;DHT22;5617;54.046;10.676;2023-06-24T05:56:17;18.00;99.90
11126;DHT22;5617;54.046;10.676;2023-06-24T05:58:24;18.10;99.90
11126;DHT22;5617;54.046;10.676;2023-06-24T06:00:32;18.20;99.90
11126;DHT22;5617;54.046;10.676;2023-06-24T06:02:40;18.30;99.90
11126;DHT22;5617;54.046;10.676;2023-06-24T06:04:48;18.40;99.90
11126;DHT22;5617;54.046;10.676;2023-06-24T06:06:55;18.40;99.90
11126;DHT22;5617;54.046;10.676;2023-06-24T06:09:04;18.50;99.90
11126;DHT22;5617;54.046;10.676;2023-06-24T06:11:12;18.50;99.90
11126;DHT22;5617;54.046;10.676;2023-06-24T06:13:21;18.50;99.90
11126;DHT22;5617;54.046;10.676;2023-06-24T06:15:29;18.60;99.90
11126;DHT22;5617;54.046;10.676;2023-06-24T06:17:36;18.80;99.90
11126;DHT22;5617;54.046;10.676;2023-06-24T06:19:44;18.90;99.90
11126;DHT22;5617;54.046;10.676;2023-06-24T06:21:54;19.00;99.90
11126;DHT22;5617;54.046;10.676;2023-06-24T06:24:01;19.10;99.90
11126;DHT22;5617;54.046;10.676;2023-06-24T06:26:09;19.20;99.90
11126;DHT22;5617;54.046;10.676;2023-06-24T06:28:17;19.20;99.90
11126;DHT22;5617;54.046;10.676;2023-06-24T06:30:26;19.20;99.90
11126;DHT22;5617;54.046;10.676;2023-06-24T06:32:33;19.30;99.90
11126;DHT22;5617;54.046;10.676;2023-06-24T06:34:41;19.30;99.90
11126;DHT22;5617;54.046;10.676;2023-06-24T06:36:49;19.40;99.90
11126;DHT22;5617;54.046;10.676;2023-06-24T06:38:57;19.60;99.90
11126;DHT22;5617;54.046;10.676;2023-06-24T06:41:04;19.70;99.90
11126;DHT22;5617;54.046;10.676;2023-06-24T06:43:12;19.90;99.90
11126;DHT22;5617;54.046;10.676;2023-06-24T06:45:19;20.00;99.90
11126;DHT22;5617;54.046;10.676;2023-06-24T06:47:28;20.30;99.90
11126;DHT22;5617;54.046;10.676;2023-06-24T06:49:36;20.40;99.90
11126;DHT22;5617;54.046;10.676;2023-06-24T06:51:44;20.50;99.40
11126;DHT22;5617;54.046;10.676;2023-06-24T06:53:51;20.50;98.90
11126;DHT22;5617;54.046;10.676;2023-06-24T06:55:59;20.60;98.70
11126;DHT22;5617;54.046;10.676;2023-06-24T06:58:07;20.70;98.40
11126;DHT22;5617;54.046;10.676;2023-06-24T07:00:16;20.80;98.40
11126;DHT22;5617;54.046;10.676;2023-06-24T07:02:24;20.80;98.30
11126;DHT22;5617;54.046;10.676;2023-06-24T07:04:33;20.90;98.10
11126;DHT22;5617;54.046;10.676;2023-06-24T07:06:41;21.00;97.90
11126;DHT22;5617;54.046;10.676;2023-06-24T07:08:49;21.20;97.80
11126;DHT22;5617;54.046;10.676;2023-06-24T07:10:57;21.30;97.70
11126;DHT22;5617;54.046;10.676;2023-06-24T07:13:04;21.30;97.80
11126;DHT22;5617;54.046;10.676;2023-06-24T07:15:12;21.40;97.20
11126;DHT22;5617;54.046;10.676;2023-06-24T07:17:20;21.40;96.70
11126;DHT22;5617;54.046;10.676;2023-06-24T07:19:27;21.50;96.50
11126;DHT22;5617;54.046;10.676;2023-06-24T07:21:37;21.50;96.10
11126;DHT22;5617;54.046;10.676;2023-06-24T07:23:45;21.60;95.80
11126;DHT22;5617;54.046;10.676;2023-06-24T07:25:53;21.70;95.40
11126;DHT22;5617;54.046;10.676;2023-06-24T07:28:01;21.80;95.20
11126;DHT22;5617;54.046;10.676;2023-06-24T07:30:09;21.90;94.90
11126;DHT22;5617;54.046;10.676;2023-06-24T07:32:17;22.10;94.80
11126;DHT22;5617;54.046;10.676;2023-06-24T07:34:24;22.20;94.40
11126;DHT22;5617;54.046;10.676;2023-06-24T07:36:32;22.20;93.80
11126;DHT22;5617;54.046;10.676;2023-06-24T07:38:41;22.30;93.40
11126;DHT22;5617;54.046;10.676;2023-06-24T07:40:48;22.50;93.00
11126;DHT22;5617;54.046;10.676;2023-06-24T07:42:56;22.60;92.60
11126;DHT22;5617;54.046;10.676;2023-06-24T07:45:05;22.70;92.70
11126;DHT22;5617;54.046;10.676;2023-06-24T07:47:12;22.70;92.70
11126;DHT22;5617;54.046;10.676;2023-06-24T07:49:20;22.90;92.60
11126;DHT22;5617;54.046;10.676;2023-06-24T07:51:28;23.10;92.20
11126;DHT22;5617;54.046;10.676;2023-06-24T07:53:36;23.20;91.90
11126;DHT22;5617;54.046;10.676;2023-06-24T07:55:44;23.20;91.90
11126;DHT22;5617;54.046;10.676;2023-06-24T07:57:52;23.30;91.90
11126;DHT22;5617;54.046;10.676;2023-06-24T08:00:00;23.60;91.80
11126;DHT22;5617;54.046;10.676;2023-06-24T08:02:09;23.80;91.30
11126;DHT22;5617;54.046;10.676;2023-06-24T08:04:16;23.90;90.60
11126;DHT22;5617;54.046;10.676;2023-06-24T08:06:24;23.90;90.00
11126;DHT22;5617;54.046;10.676;2023-06-24T08:08:32;24.00;89.90
11126;DHT22;5617;54.046;10.676;2023-06-24T08:10:39;24.00;89.30
11126;DHT22;5617;54.046;10.676;2023-06-24T08:12:49;24.00;89.10
11126;DHT22;5617;54.046;10.676;2023-06-24T08:14:56;24.00;89.20
11126;DHT22;5617;54.046;10.676;2023-06-24T08:17:04;24.00;88.30
11126;DHT22;5617;54.046;10.676;2023-06-24T08:19:12;24.00;87.70
11126;DHT22;5617;54.046;10.676;2023-06-24T08:21:20;24.00;87.60
11126;DHT22;5617;54.046;10.676;2023-06-24T08:23:27;24.20;87.10
11126;DHT22;5617;54.046;10.676;2023-06-24T08:25:35;24.30;86.30
11126;DHT22;5617;54.046;10.676;2023-06-24T08:27:43;24.50;85.30
11126;DHT22;5617;54.046;10.676;2023-06-24T08:29:54;24.60;84.30
11126;DHT22;5617;54.046;10.676;2023-06-24T08:32:02;24.80;84.20
11126;DHT22;5617;54.046;10.676;2023-06-24T08:34:10;24.90;83.60
11126;DHT22;5617;54.046;10.676;2023-06-24T08:36:17;25.10;82.60
11126;DHT22;5617;54.046;10.676;2023-06-24T08:38:25;25.10;81.50
11126;DHT22;5617;54.046;10.676;2023-06-24T08:40:32;25.10;80.80
11126;DHT22;5617;54.046;10.676;2023-06-24T08:42:42;25.10;80.00
11126;DHT22;5617;54.046;10.676;2023-06-24T08:44:50;25.10;79.50
11126;DHT22;5617;54.046;10.676;2023-06-24T08:46:59;25.30;79.20
11126;DHT22;5617;54.046;10.676;2023-06-24T08:49:11;25.40;78.40
11126;DHT22;5617;54.046;10.676;2023-06-24T08:51:24;25.50;78.20
11126;DHT22;5617;54.046;10.676;2023-06-24T08:53:34;25.60;77.20
11126;DHT22;5617;54.046;10.676;2023-06-24T08:55:44;25.50;77.00
11126;DHT22;5617;54.046;10.676;2023-06-24T08:57:52;25.60;76.80
11126;DHT22;5617;54.046;10.676;2023-06-24T09:00:00;25.70;76.40
11126;DHT22;5617;54.046;10.676;2023-06-24T09:02:17;25.50;77.30
11126;DHT22;5617;54.046;10.676;2023-06-24T09:04:26;25.40;76.00
11126;DHT22;5617;54.046;10.676;2023-06-24T09:06:33;25.40;76.10
11126;DHT22;5617;54.046;10.676;2023-06-24T09:08:41;25.40;76.70
11126;DHT22;5617;54.046;10.676;2023-06-24T09:10:59;25.50;76.50
11126;DHT22;5617;54.046;10.676;2023-06-24T09:13:07;25.60;76.80
11126;DHT22;5617;54.046;10.676;2023-06-24T09:15:15;25.70;76.30
11126;DHT22;5617;54.046;10.676;2023-06-24T09:17:24;25.70;75.90
11126;DHT22;5617;54.046;10.676;2023-06-24T09:19:36;25.90;75.90
11126;DHT22;5617;54.046;10.676;2023-06-24T09:21:45;25.80;75.60
11126;DHT22;5617;54.046;10.676;2023-06-24T09:23:53;25.80;75.80
11126;DHT22;5617;54.046;10.676;2023-06-24T09:26:01;26.00;76.00
11126;DHT22;5617;54.046;10.676;2023-06-24T09:28:08;25.90;76.50
11126;DHT22;5617;54.046;10.676;2023-06-24T09:30:17;26.10;76.90
11126;DHT22;5617;54.046;10.676;2023-06-24T09:32:29;26.30;76.40
11126;DHT22;5617;54.046;10.676;2023-06-24T09:34:37;26.40;76.70
11126;DHT22;5617;54.046;10.676;2023-06-24T09:36:51;26.40;75.90
11126;DHT22;5617;54.046;10.676;2023-06-24T09:39:05;26.40;75.50
11126;DHT22;5617;54.046;10.676;2023-06-24T09:41:24;26.50;75.40
11126;DHT22;5617;54.046;10.676;2023-06-24T09:43:34;26.60;75.00
11126;DHT22;5617;54.046;10.676;2023-06-24T09:45:49;26.60;76.30
11126;DHT22;5617;54.046;10.676;2023-06-24T09:47:58;26.70;76.30
11126;DHT22;5617;54.046;10.676;2023-06-24T09:50:06;26.80;75.90
11126;DHT22;5617;54.046;10.676;2023-06-24T09:52:14;26.80;76.00
11126;DHT22;5617;54.046;10.676;2023-06-24T09:54:25;27.00;76.00
11126;DHT22;5617;54.046;10.676;2023-06-24T09:56:40;27.10;75.50
11126;DHT22;5617;54.046;10.676;2023-06-24T09:58:50;27.20;74.70
11126;DHT22;5617;54.046;10.676;2023-06-24T10:01:01;27.20;74.40
11126;DHT22;5617;54.046;10.676;2023-06-24T10:03:12;27.40;74.90
11126;DHT22;5617;54.046;10.676;2023-06-24T10:05:20;27.60;75.10
11126;DHT22;5617;54.046;10.676;2023-06-24T10:07:28;27.80;74.20
11126;DHT22;5617;54.046;10.676;2023-06-24T10:09:37;27.80;74.30
11126;DHT22;5617;54.046;10.676;2023-06-24T10:11:46;27.90;73.90
11126;DHT22;5617;54.046;10.676;2023-06-24T10:13:54;28.00;73.20
11126;DHT22;5617;54.046;10.676;2023-06-24T10:16:02;27.90;72.30
11126;DHT22;5617;54.046;10.676;2023-06-24T10:18:36;28.10;71.70
11126;DHT22;5617;54.046;10.676;2023-06-24T10:20:47;28.30;71.10
11126;DHT22;5617;54.046;10.676;2023-06-24T10:22:55;28.30;70.70
11126;DHT22;5617;54.046;10.676;2023-06-24T10:25:06;28.40;70.50
11126;DHT22;5617;54.046;10.676;2023-06-24T10:27:16;28.50;69.60
11126;DHT22;5617;54.046;10.676;2023-06-24T10:29:34;28.60;70.60
11126;DHT22;5617;54.046;10.676;2023-06-24T10:31:51;28.60;69.40
11126;DHT22;5617;54.046;10.676;2023-06-24T10:34:00;28.60;69.10
11126;DHT22;5617;54.046;10.676;2023-06-24T10:36:32;28.70;68.80
11126;DHT22;5617;54.046;10.676;2023-06-24T10:38:39;28.60;68.20
11126;DHT22;5617;54.046;10.676;2023-06-24T10:40:49;28.50;68.30
11126;DHT22;5617;54.046;10.676;2023-06-24T10:42:57;28.60;68.40
11126;DHT22;5617;54.046;10.676;2023-06-24T10:45:18;28.70;68.30
11126;DHT22;5617;54.046;10.676;2023-06-24T10:47:27;28.70;68.40
11126;DHT22;5617;54.046;10.676;2023-06-24T10:49:37;28.90;67.90
11126;DHT22;5617;54.046;10.676;2023-06-24T10:51:44;29.00;68.50
11126;DHT22;5617;54.046;10.676;2023-06-24T10:53:54;29.10;68.50
11126;DHT22;5617;54.046;10.676;2023-06-24T10:56:02;29.00;68.40
11126;DHT22;5617;54.046;10.676;2023-06-24T10:58:12;29.00;69.00
11126;DHT22;5617;54.046;10.676;2023-06-24T11:00:21;29.00;68.10
11126;DHT22;5617;54.046;10.676;2023-06-24T11:02:29;29.20;67.60
11126;DHT22;5617;54.046;10.676;2023-06-24T11:04:44;29.40;66.80
11126;DHT22;5617;54.046;10.676;2023-06-24T11:06:57;29.40;66.20
11126;DHT22;5617;54.046;10.676;2023-06-24T11:09:05;29.30;66.40
11126;DHT22;5617;54.046;10.676;2023-06-24T11:11:20;29.60;66.50
11126;DHT22;5617;54.046;10.676;2023-06-24T11:13:32;29.60;65.30
11126;DHT22;5617;54.046;10.676;2023-06-24T11:15:41;29.30;65.40
11126;DHT22;5617;54.046;10.676;2023-06-24T11:17:51;29.00;65.80
11126;DHT22;5617;54.046;10.676;2023-06-24T11:20:00;28.90;66.40
11126;DHT22;5617;54.046;10.676;2023-06-24T11:22:09;28.60;67.50
11126;DHT22;5617;54.046;10.676;2023-06-24T11:24:16;28.40;68.10
11126;DHT22;5617;54.046;10.676;2023-06-24T11:26:24;28.30;68.50
11126;DHT22;5617;54.046;10.676;2023-06-24T11:28:32;28.30;68.50
11126;DHT22;5617;54.046;10.676;2023-06-24T11:30:39;28.10;69.00
11126;DHT22;5617;54.046;10.676;2023-06-24T11:32:47;28.20;69.00
11126;DHT22;5617;54.046;10.676;2023-06-24T11:34:56;28.30;68.70
11126;DHT22;5617;54.046;10.676;2023-06-24T11:37:13;28.20;68.50
11126;DHT22;5617;54.046;10.676;2023-06-24T11:39:22;28.20;69.40
11126;DHT22;5617;54.046;10.676;2023-06-24T11:41:30;28.30;69.70
11126;DHT22;5617;54.046;10.676;2023-06-24T11:43:43;28.50;69.80
11126;DHT22;5617;54.046;10.676;2023-06-24T11:45:51;28.70;69.50
11126;DHT22;5617;54.046;10.676;2023-06-24T11:48:03;28.80;69.10
11126;DHT22;5617;54.046;10.676;2023-06-24T11:50:13;28.50;69.30
11126;DHT22;5617;54.046;10.676;2023-06-24T11:52:32;28.50;70.00
11126;DHT22;5617;54.046;10.676;2023-06-24T11:54:40;28.20;70.10
11126;DHT22;5617;54.046;10.676;2023-06-24T11:56:50;28.00;70.80
11126;DHT22;5617;54.046;10.676;2023-06-24T11:58:58;27.80;72.10
11126;DHT22;5617;54.046;10.676;2023-06-24T12:01:07;27.60;72.00
11126;DHT22;5617;54.046;10.676;2023-06-24T12:03:15;27.60;72.40
11126;DHT22;5617;54.046;10.676;2023-06-24T12:05:28;27.60;72.50
11126;DHT22;5617;54.046;10.676;2023-06-24T12:07:37;27.50;72.80
11126;DHT22;5617;54.046;10.676;2023-06-24T12:09:45;27.30;73.30
11126;DHT22;5617;54.046;10.676;2023-06-24T12:11:52;27.40;73.60
11126;DHT22;5617;54.046;10.676;2023-06-24T12:14:00;27.60;73.20
11126;DHT22;5617;54.046;10.676;2023-06-24T12:16:08;27.70;72.50
11126;DHT22;5617;54.046;10.676;2023-06-24T12:18:15;27.80;72.70
11126;DHT22;5617;54.046;10.676;2023-06-24T12:20:24;27.90;73.00
11126;DHT22;5617;54.046;10.676;2023-06-24T12:22:37;28.30;71.50
11126;DHT22;5617;54.046;10.676;2023-06-24T12:24:45;28.50;71.60
11126;DHT22;5617;54.046;10.676;2023-06-24T12:26:53;28.70;71.60
11126;DHT22;5617;54.046;10.676;2023-06-24T12:29:00;28.90;71.30
11126;DHT22;5617;54.046;10.676;2023-06-24T12:31:08;28.90;70.50
11126;DHT22;5617;54.046;10.676;2023-06-24T12:33:16;28.80;70.00
11126;DHT22;5617;54.046;10.676;2023-06-24T12:35:25;28.60;70.10
11126;DHT22;5617;54.046;10.676;2023-06-24T12:37:33;28.40;70.00
11126;DHT22;5617;54.046;10.676;2023-06-24T12:39:43;28.30;70.50
11126;DHT22;5617;54.046;10.676;2023-06-24T12:41:52;28.30;71.90
11126;DHT22;5617;54.046;10.676;2023-06-24T12:43:59;28.30;71.90
11126;DHT22;5617;54.046;10.676;2023-06-24T12:46:07;28.30;71.40
11126;DHT22;5617;54.046;10.676;2023-06-24T12:48:14;28.40;71.20
11126;DHT22;5617;54.046;10.676;2023-06-24T12:50:22;28.40;70.90
11126;DHT22;5617;54.046;10.676;2023-06-24T12:52:30;28.20;70.70
11126;DHT22;5617;54.046;10.676;2023-06-24T12:54:37;28.00;71.70
11126;DHT22;5617;54.046;10.676;2023-06-24T12:56:46;27.80;72.30
11126;DHT22;5617;54.046;10.676;2023-06-24T12:58:54;27.70;72.40
11126;DHT22;5617;54.046;10.676;2023-06-24T13:01:01;27.70;72.50
11126;DHT22;5617;54.046;10.676;2023-06-24T13:03:11;27.80;72.90
11126;DHT22;5617;54.046;10.676;2023-06-24T13:05:18;27.90;73.30
11126;DHT22;5617;54.046;10.676;2023-06-24T13:07:26;27.90;73.10
11126;DHT22;5617;54.046;10.676;2023-06-24T13:09:34;27.80;72.40
11126;DHT22;5617;54.046;10.676;2023-06-24T13:11:42;27.90;72.30
11126;DHT22;5617;54.046;10.676;2023-06-24T13:13:51;28.20;71.40
11126;DHT22;5617;54.046;10.676;2023-06-24T13:15:59;28.40;72.00
11126;DHT22;5617;54.046;10.676;2023-06-24T13:18:06;28.70;72.40
11126;DHT22;5617;54.046;10.676;2023-06-24T13:20:14;29.20;71.60
11126;DHT22;5617;54.046;10.676;2023-06-24T13:22:22;29.60;70.10
11126;DHT22;5617;54.046;10.676;2023-06-24T13:24:29;29.90;69.80
11126;DHT22;5617;54.046;10.676;2023-06-24T13:26:37;29.80;68.70
11126;DHT22;5617;54.046;10.676;2023-06-24T13:28:45;29.50;68.50
11126;DHT22;5617;54.046;10.676;2023-06-24T13:30:54;29.40;69.10
11126;DHT22;5617;54.046;10.676;2023-06-24T13:33:02;29.20;69.50
11126;DHT22;5617;54.046;10.676;2023-06-24T13:35:10;29.10;69.60
11126;DHT22;5617;54.046;10.676;2023-06-24T13:37:18;29.00;69.00
11126;DHT22;5617;54.046;10.676;2023-06-24T13:39:26;29.00;68.30
11126;DHT22;5617;54.046;10.676;2023-06-24T13:41:34;29.10;68.90
11126;DHT22;5617;54.046;10.676;2023-06-24T13:43:42;29.20;69.50
11126;DHT22;5617;54.046;10.676;2023-06-24T13:45:51;29.60;68.90
11126;DHT22;5617;54.046;10.676;2023-06-24T13:48:00;29.60;68.30
11126;DHT22;5617;54.046;10.676;2023-06-24T13:50:09;29.30;68.20
11126;DHT22;5617;54.046;10.676;2023-06-24T13:52:17;29.30;68.30
11126;DHT22;5617;54.046;10.676;2023-06-24T13:54:24;29.70;67.60